Time;durP1;ratioP1;P1;durP2;ratioP2;P2;SDS_P1;SDS_P2;PMS_P1;PMS_P2;Temp;Humidity;BMP_temperature;BMP_pressure;BME280_temperature;BME280_humidity;BME280_pressure;Samples;Min_cycle;Max_cycle;Signal;HPM_P1;HPM_P2
2023/11/27 00:03:59;;;;;;;8.60;1.27;;;;;;;6.97;70.21;99981.28;10229221;28;20043;-81
2023/11/27 00:09:01;;;;;;;4.90;1.48;;;;;;;6.91;69.79;99966.75;10264343;28;20074;-81
2023/11/27 00:14:06;;;;;;;4.63;1.50;;;;;;;6.91;69.78;99962.25;10247383;28;20051;-81
2023/11/27 00:19:07;;;;;;;5.72;1.33;;;;;;;6.85;70.42;99957.56;10259600;28;20063;-80
2023/11/27 00:24:09;;;;;;;4.45;1.17;;;;;;;6.90;69.99;99955.22;10231282;28;20051;-80
2023/11/27 00:54:13;;;;;;;7.25;1.98;;;;;;;6.81;69.91;99918.78;10251232;28;20064;-81
2023/11/27 00:59:15;;;;;;;9.48;2.00;;;;;;;6.80;70.02;99916.31;10261597;28;20059;-80
2023/11/27 01:04:16;;;;;;;5.80;2.13;;;;;;;6.83;70.01;99919.50;10260989;28;20047;-77
2023/11/27 01:09:20;;;;;;;8.68;2.38;;;;;;;6.82;69.59;99915.13;10256884;28;20055;-78
2023/11/27 01:14:22;;;;;;;7.45;1.98;;;;;;;6.81;69.45;99910.78;10240440;28;20134;-77
2023/11/27 01:19:24;;;;;;;6.20;1.90;;;;;;;6.82;70.04;99903.63;10243578;28;20620;-77
2023/11/27 01:24:25;;;;;;;10.80;2.22;;;;;;;6.82;69.67;99898.28;10259871;28;20134;-76
2023/11/27 01:29:27;;;;;;;7.60;1.80;;;;;;;6.84;69.62;99893.59;10247599;28;20138;-77
2023/11/27 01:34:29;;;;;;;8.40;2.33;;;;;;;6.86;69.56;99895.09;10243162;28;20044;-77
2023/11/27 01:39:31;;;;;;;7.30;2.03;;;;;;;6.86;69.26;99883.59;10257585;28;20055;-77
2023/11/27 01:44:33;;;;;;;11.05;2.42;;;;;;;6.93;69.22;99876.56;10259213;28;20051;-77
2023/11/27 01:49:38;;;;;;;5.38;2.53;;;;;;;6.92;69.25;99869.56;10262097;28;20704;-76
2023/11/27 01:54:40;;;;;;;3.65;1.58;;;;;;;6.89;69.03;99857.38;10225039;28;20042;-77
2023/11/27 01:59:46;;;;;;;8.18;1.80;;;;;;;6.95;68.96;99848.72;10255118;28;20503;-77
2023/11/27 02:04:48;;;;;;;5.88;1.60;;;;;;;6.97;69.58;99835.19;10260997;28;20126;-77
2023/11/27 02:09:49;;;;;;;6.45;1.63;;;;;;;6.96;68.88;99836.19;10243408;28;20046;-77
2023/11/27 02:14:52;;;;;;;8.13;1.67;;;;;;;6.93;68.82;99829.34;10258648;28;20057;-81
2023/11/27 02:19:54;;;;;;;5.05;1.65;;;;;;;6.86;68.84;99819.47;10262101;28;20135;-81
2023/11/27 02:24:55;;;;;;;7.45;1.70;;;;;;;6.87;68.81;99813.13;10238023;28;20053;-81
2023/11/27 02:29:57;;;;;;;5.10;1.58;;;;;;;6.78;68.98;99811.47;10268379;28;20561;-80
2023/11/27 02:34:59;;;;;;;6.88;1.10;;;;;;;6.73;68.76;99804.78;10252363;28;20047;-81
2023/11/27 02:40:01;;;;;;;7.40;1.60;;;;;;;6.69;68.81;99797.22;10254057;28;20047;-81
2023/11/27 02:45:03;;;;;;;8.18;1.33;;;;;;;6.61;69.04;99787.38;10243291;28;20964;-81
2023/11/27 02:50:05;;;;;;;4.15;1.10;;;;;;;6.59;69.03;99785.88;10247235;28;20050;-81
2023/11/27 02:55:07;;;;;;;6.65;1.05;;;;;;;6.58;68.72;99778.88;10265595;28;20525;-79
2023/11/27 03:00:12;;;;;;;4.63;1.63;;;;;;;6.62;69.07;99765.03;10248708;28;20101;-79
2023/11/27 03:05:14;;;;;;;4.68;1.33;;;;;;;6.52;68.96;99759.00;10252331;28;20087;-81
2023/11/27 03:10:16;;;;;;;6.30;1.58;;;;;;;6.49;68.47;99749.47;10245999;28;20638;-81
2023/11/27 03:15:18;;;;;;;6.88;1.45;;;;;;;6.43;68.52;99738.63;10249127;28;20054;-80
2023/11/27 03:20:20;;;;;;;5.15;1.42;;;;;;;6.46;68.85;99724.97;10244032;28;20134;-81
2023/11/27 03:25:21;;;;;;;3.03;0.80;;;;;;;6.39;68.22;99724.75;10262514;28;20058;-78
2023/11/27 03:30:23;;;;;;;3.83;1.02;;;;;;;6.33;68.72;99712.06;10239161;28;20161;-78
2023/11/27 03:35:25;;;;;;;7.20;1.20;;;;;;;6.32;68.03;99713.91;10262028;28;20043;-77
2023/11/27 03:40:26;;;;;;;3.53;1.30;;;;;;;6.33;68.73;99701.41;10251221;28;20061;-78
2023/11/27 03:45:28;;;;;;;10.23;1.27;;;;;;;6.36;68.22;99693.06;10261685;28;20090;-78
2023/11/27 03:50:29;;;;;;;6.88;0.80;;;;;;;6.28;68.27;99693.03;10241946;28;20065;-78
2023/11/27 03:55:31;;;;;;;3.42;0.55;;;;;;;6.22;68.75;99691.03;10264106;28;20803;-78
2023/11/27 04:00:33;;;;;;;8.55;0.90;;;;;;;6.20;68.55;99685.88;10244127;28;20081;-78
2023/11/27 04:05:34;;;;;;;4.28;0.80;;;;;;;6.17;67.84;99680.03;10261847;28;20086;-78
2023/11/27 04:10:36;;;;;;;6.82;0.90;;;;;;;6.15;68.13;99677.53;10252146;28;20047;-78
2023/11/27 04:15:38;;;;;;;5.32;1.10;;;;;;;6.17;68.35;99664.03;10243981;28;20058;-78
2023/11/27 04:20:40;;;;;;;4.25;0.82;;;;;;;6.20;68.03;99664.53;10258257;28;20517;-78
2023/11/27 04:25:41;;;;;;;4.50;0.80;;;;;;;6.13;68.29;99661.66;10223145;28;20403;-78
2023/11/27 04:30:43;;;;;;;4.47;1.15;;;;;;;6.17;67.85;99648.84;10246858;28;20090;-78
2023/11/27 04:35:45;;;;;;;2.78;0.60;;;;;;;6.27;67.74;99651.34;10232523;28;20063;-81
2023/11/27 04:40:46;;;;;;;2.05;0.70;;;;;;;6.25;68.19;99640.84;10243713;28;20078;-81
2023/11/27 04:45:48;;;;;;;3.85;1.33;;;;;;;6.21;68.15;99631.50;10246185;28;20390;-81
2023/11/27 04:50:50;;;;;;;8.30;1.27;;;;;;;6.22;67.89;99630.50;10244960;28;20129;-79
2023/11/27 04:55:51;;;;;;;5.03;1.13;;;;;;;6.29;67.92;99620.81;10263362;28;20067;-79
2023/11/27 05:00:53;;;;;;;8.23;1.70;;;;;;;6.34;67.59;99607.00;10261474;28;20426;-81
2023/11/27 05:05:58;;;;;;;3.28;1.20;;;;;;;6.28;67.54;99605.81;10241832;28;20088;-81
2023/11/27 05:11:00;;;;;;;8.20;1.75;;;;;;;6.21;68.61;99601.31;10246492;28;20051;-81
2023/11/27 05:16:02;;;;;;;6.30;2.15;;;;;;;6.15;68.42;99597.47;10250401;28;20054;-81
2023/11/27 05:21:04;;;;;;;4.63;1.30;;;;;;;6.26;68.50;99586.47;10239564;28;20224;-79
2023/11/27 05:26:06;;;;;;;5.32;1.88;;;;;;;6.20;68.25;99586.28;10260970;28;20146;-81
2023/11/27 05:31:08;;;;;;;7.95;3.13;;;;;;;6.12;69.21;99576.44;10248037;28;20098;-81
2023/11/27 05:36:10;;;;;;;7.80;1.50;;;;;;;6.14;68.08;99563.78;10242018;28;20079;-81
2023/11/27 05:41:12;;;;;;;6.00;1.60;;;;;;;6.11;68.36;99556.94;10247848;28;20063;-81
2023/11/27 05:46:14;;;;;;;4.68;2.10;;;;;;;6.07;68.38;99558.28;10237715;28;20063;-78
2023/11/27 05:51:16;;;;;;;5.13;2.00;;;;;;;5.98;69.02;99550.44;10258212;28;20503;-78
2023/11/27 05:56:17;;;;;;;5.93;2.13;;;;;;;5.97;68.33;99544.28;10241830;28;20089;-78
2023/11/27 06:01:19;;;;;;;8.23;2.20;;;;;;;5.97;69.04;99543.44;10264665;28;20047;-78
2023/11/27 06:06:21;;;;;;;7.57;2.38;;;;;;;5.93;69.19;99535.72;10233488;28;20067;-78
2023/11/27 06:11:23;;;;;;;6.10;1.98;;;;;;;5.93;68.68;99530.41;10267919;28;20055;-78
2023/11/27 06:16:25;;;;;;;4.75;2.08;;;;;;;5.89;68.88;99520.25;10267834;28;20145;-78
2023/11/27 06:21:27;;;;;;;6.43;1.42;;;;;;;5.90;68.69;99520.06;10246425;28;20161;-79
2023/11/27 06:26:29;;;;;;;4.50;2.10;;;;;;;5.89;69.42;99512.25;10235889;28;20482;-78
2023/11/27 06:31:30;;;;;;;9.90;2.55;;;;;;;5.87;69.38;99504.41;10238788;28;20046;-78
2023/11/27 06:36:32;;;;;;;5.75;1.58;;;;;;;5.90;69.33;99492.56;10262325;28;20070;-78
2023/11/27 06:41:34;;;;;;;4.32;1.88;;;;;;;5.91;69.03;99492.38;10254365;28;20039;-78
2023/11/27 06:46:36;;;;;;;5.38;1.75;;;;;;;5.94;69.12;99475.22;10242797;28;20102;-79
2023/11/27 06:51:38;;;;;;;6.72;2.47;;;;;;;5.97;68.69;99480.25;10233454;28;20138;-78
2023/11/27 06:56:40;;;;;;;6.00;2.40;;;;;;;6.01;68.18;99470.91;10243950;28;20051;-77
2023/11/27 07:01:42;;;;;;;6.65;2.33;;;;;;;6.04;68.76;99461.72;10235970;28;20365;-78
2023/11/27 07:06:45;;;;;;;8.13;1.70;;;;;;;6.07;68.48;99456.06;10264348;28;20059;-80
2023/11/27 07:11:49;;;;;;;5.47;1.90;;;;;;;6.09;68.64;99454.06;10252348;28;20078;-82
2023/11/27 07:16:51;;;;;;;8.48;2.25;;;;;;;6.09;68.55;99446.88;10272961;28;20075;-79
2023/11/27 07:21:53;;;;;;;5.53;1.65;;;;;;;6.10;68.49;99437.91;10292172;28;20046;-79
2023/11/27 07:26:55;;;;;;;9.07;2.70;;;;;;;6.09;68.67;99414.03;10288065;28;20047;-79
2023/11/27 07:31:58;;;;;;;6.50;1.92;;;;;;;5.93;69.56;99418.38;10311944;28;20066;-79
2023/11/27 07:37:03;;;;;;;7.28;1.80;;;;;;;5.88;69.14;99410.03;10275509;28;20093;-79
2023/11/27 07:42:06;;;;;;;6.10;2.45;;;;;;;5.79;68.90;99410.25;10313695;28;20058;-79
2023/11/27 07:47:10;;;;;;;6.03;2.00;;;;;;;5.68;69.99;99408.72;10308393;28;20058;-79
2023/11/27 07:52:12;;;;;;;9.52;2.03;;;;;;;5.70;69.44;99401.41;10291754;28;20054;-79
2023/11/27 07:57:14;;;;;;;4.53;2.20;;;;;;;5.70;69.44;99398.72;10264228;28;20055;-79
2023/11/27 08:02:16;;;;;;;15.88;2.45;;;;;;;5.66;69.76;99384.91;10267851;28;20057;-80
2023/11/27 08:07:18;;;;;;;7.88;2.55;;;;;;;5.62;69.69;99391.56;10264309;28;20417;-79
2023/11/27 08:12:20;;;;;;;6.10;1.95;;;;;;;5.66;69.84;99378.75;10241754;28;20061;-79
2023/11/27 08:17:22;;;;;;;5.57;2.40;;;;;;;5.66;70.40;99378.75;10244724;28;20130;-80
2023/11/27 08:22:23;;;;;;;7.60;2.25;;;;;;;5.52;70.32;99373.09;10242589;28;20090;-81
2023/11/27 08:27:26;;;;;;;4.85;1.65;;;;;;;5.54;70.20;99363.09;10231712;28;20505;-81
2023/11/27 08:32:27;;;;;;;5.82;2.33;;;;;;;5.60;70.11;99352.75;10252025;28;20478;-79
2023/11/27 08:37:35;;;;;;;3.60;1.95;;;;;;;5.50;70.48;99347.59;10245174;28;20061;-80
2023/11/27 08:42:38;;;;;;;3.88;1.90;;;;;;;5.41;70.48;99338.81;10261710;28;20056;-81
2023/11/27 08:47:40;;;;;;;6.55;2.08;;;;;;;5.33;70.88;99338.78;10266735;28;20055;-80
2023/11/27 08:52:41;;;;;;;7.68;2.05;;;;;;;5.29;71.31;99329.44;10264645;28;20418;-79
2023/11/27 08:57:43;;;;;;;4.63;1.67;;;;;;;5.22;71.58;99325.81;10249739;28;20239;-85
2023/11/27 09:02:45;;;;;;;7.50;1.55;;;;;;;5.05;72.04;99314.31;10260205;28;20026;-89
2023/11/27 09:07:53;;;;;;;8.13;2.75;;;;;;;4.96;72.31;99316.97;10260003;28;20059;-84
2023/11/27 09:12:55;;;;;;;8.32;2.47;;;;;;;4.90;72.91;99316.81;10261678;28;20427;-83
2023/11/27 09:17:59;;;;;;;8.52;2.60;;;;;;;4.86;72.87;99310.97;10255225;28;20051;-85
2023/11/27 09:23:01;;;;;;;9.77;3.00;;;;;;;4.73;72.88;99305.31;10274159;28;20110;-84
2023/11/27 09:28:02;;;;;;;8.77;3.33;;;;;;;4.67;73.18;99288.16;10273672;28;20050;-80
2023/11/27 09:33:04;;;;;;;9.77;4.28;;;;;;;4.66;73.38;99285.66;10268428;28;20065;-82
2023/11/27 09:38:08;;;;;;;5.90;2.63;;;;;;;4.56;73.60;99275.16;10281216;28;20072;-80
2023/11/27 09:43:10;;;;;;;5.38;2.13;;;;;;;4.52;73.46;99264.03;10264862;28;20055;-80
2023/11/27 09:48:16;;;;;;;6.68;2.55;;;;;;;4.51;73.94;99254.38;10286086;28;20051;-85
2023/11/27 09:53:24;;;;;;;8.20;2.30;;;;;;;4.48;74.40;99246.72;10294542;28;20055;-83
2023/11/27 09:58:25;;;;;;;6.15;3.03;;;;;;;4.36;74.08;99234.72;10305588;28;20058;-84
2023/11/27 10:03:29;;;;;;;7.45;2.20;;;;;;;4.43;73.98;99219.75;10265139;28;20131;-80
2023/11/27 10:08:35;;;;;;;5.82;2.72;;;;;;;4.29;74.31;99204.47;10258093;28;20066;-81
2023/11/27 10:13:41;;;;;;;6.72;2.72;;;;;;;4.27;74.26;99185.16;10295986;28;20059;-81
2023/11/27 10:19:07;;;;;;;8.48;2.88;;;;;;;4.24;74.98;99180.16;10276072;28;20050;-83
2023/11/27 10:24:10;;;;;;;7.18;2.80;;;;;;;4.31;75.12;99157.25;10258820;28;20071;-86
2023/11/27 10:29:25;;;;;;;7.40;3.17;;;;;;;4.25;75.48;99137.44;10268366;28;20134;-83
2023/11/27 10:34:31;;;;;;;6.55;2.85;;;;;;;4.39;75.14;99113.84;10240147;28;20471;-83
2023/11/27 10:39:33;;;;;;;8.57;3.72;;;;;;;4.29;75.33;99112.19;10296981;28;20055;-82
2023/11/27 10:44:36;;;;;;;6.25;3.08;;;;;;;4.27;75.92;99097.41;10306328;23;20077;-66
2023/11/27 10:49:39;;;;;;;7.55;3.95;;;;;;;4.17;75.55;99095.72;10292798;28;20137;-68
2023/11/27 10:54:41;;;;;;;7.07;3.17;;;;;;;4.17;75.84;99074.44;10287985;28;20043;-66
2023/11/27 10:59:44;;;;;;;13.52;3.83;;;;;;;4.25;75.68;99056.84;10287445;28;20137;-67
2023/11/27 11:04:51;;;;;;;6.03;2.38;;;;;;;4.09;76.28;99055.84;10284506;28;20109;-68
2023/11/27 11:09:55;;;;;;;6.30;2.58;;;;;;;3.95;76.11;99037.91;10279620;28;20053;-67
2023/11/27 11:14:57;;;;;;;5.88;2.08;;;;;;;3.83;76.60;99029.41;10287903;28;20050;-68
2023/11/27 11:20:28;;;;;;;5.97;2.40;;;;;;;3.93;76.37;99005.31;10280103;28;20047;-68
2023/11/27 11:25:48;;;;;;;5.95;2.55;;;;;;;3.84;76.46;98998.34;10287836;28;20047;-67
2023/11/27 11:31:38;;;;;;;4.75;2.13;;;;;;;3.68;76.85;98983.22;10285132;28;20054;-68
2023/11/27 11:36:40;;;;;;;6.05;2.90;;;;;;;3.63;77.37;98969.59;10171288;29;20084;-69
2023/11/27 11:41:43;;;;;;;4.53;2.60;;;;;;;3.61;76.97;98966.28;10258995;28;20059;-68
2023/11/27 11:46:47;;;;;;;4.57;2.00;;;;;;;3.54;77.16;98947.53;10322967;23;20509;-86
2023/11/27 11:52:03;;;;;;;4.00;2.22;;;;;;;3.49;77.26;98945.34;10274864;28;20078;-80
2023/11/27 11:57:21;;;;;;;5.93;1.95;;;;;;;3.50;77.39;98933.75;10312636;28;20054;-87
2023/11/27 12:02:22;;;;;;;3.03;1.60;;;;;;;3.50;76.87;98912.47;10283598;28;20546;-86
2023/11/27 12:07:25;;;;;;;5.38;2.13;;;;;;;3.36;77.41;98889.25;10270731;28;20080;-80
2023/11/27 12:12:27;;;;;;;4.38;1.80;;;;;;;3.18;77.81;98882.28;10277373;28;20502;-84
2023/11/27 12:17:29;;;;;;;6.22;1.80;;;;;;;3.16;77.97;98878.13;10290090;28;20062;-84
2023/11/27 12:22:32;;;;;;;7.80;2.30;;;;;;;3.00;77.92;98870.13;10278512;28;20050;-83
2023/11/27 12:27:37;;;;;;;6.75;2.60;;;;;;;2.89;78.02;98855.38;10269411;28;20066;-78
2023/11/27 12:32:38;;;;;;;4.55;2.28;;;;;;;2.81;78.10;98850.88;10257169;28;20149;-79
2023/11/27 12:37:45;;;;;;;5.22;2.70;;;;;;;2.82;77.80;98841.06;10289166;28;20494;-80
2023/11/27 12:42:47;;;;;;;6.93;2.63;;;;;;;2.69;78.08;98828.31;10262174;28;20046;-80
2023/11/27 12:47:50;;;;;;;7.25;2.40;;;;;;;2.67;78.26;98827.63;10272625;28;20047;-80
2023/11/27 12:53:03;;;;;;;7.00;2.95;;;;;;;2.65;77.74;98814.53;10263884;28;20415;-78
2023/11/27 12:58:12;;;;;;;6.05;2.25;;;;;;;2.72;77.52;98804.91;10284452;28;20051;-83
2023/11/27 13:03:19;;;;;;;5.60;3.17;;;;;;;2.79;77.48;98794.47;10306686;28;20077;-80
2023/11/27 13:08:25;;;;;;;4.38;2.67;;;;;;;2.74;77.95;98773.72;10302123;28;20071;-80
2023/11/27 13:13:29;;;;;;;6.18;3.00;;;;;;;2.67;78.00;98751.53;10283418;28;20042;-77
2023/11/27 13:18:32;;;;;;;4.68;2.45;;;;;;;2.58;78.37;98747.19;10293325;28;20077;-82
2023/11/27 13:23:37;;;;;;;5.15;2.95;;;;;;;2.56;78.48;98743.88;10289291;28;20264;-79
2023/11/27 13:28:42;;;;;;;5.68;3.10;;;;;;;2.57;78.53;98743.72;10287172;28;20053;-84
2023/11/27 13:33:44;;;;;;;4.53;2.90;;;;;;;2.54;78.33;98740.56;10300318;28;20051;-84
2023/11/27 13:38:47;;;;;;;4.97;3.17;;;;;;;2.58;78.90;98731.28;10263294;28;20797;-76
2023/11/27 13:43:49;;;;;;;5.88;3.20;;;;;;;2.60;78.42;98720.53;10271743;28;20399;-80
2023/11/27 13:48:51;;;;;;;4.75;2.92;;;;;;;2.66;78.83;98701.28;10281228;28;20042;-81
2023/11/27 13:53:54;;;;;;;3.65;1.80;;;;;;;2.56;78.95;98685.53;10282673;28;20081;-83
2023/11/27 13:58:59;;;;;;;5.20;1.60;;;;;;;2.51;78.67;98680.75;10266362;28;20122;-83
2023/11/27 14:10:18;;;;;;;2.42;1.35;;;;;;;2.55;78.55;98660.03;10264631;28;20057;-83
2023/11/27 14:14:48;;;;;;;5.50;1.42;;;;;;;2.60;78.44;98655.03;10276557;28;20458;-83
2023/11/27 14:30:33;;;;;;;4.07;1.27;;;;;;;2.59;78.87;98626.88;10290130;28;20063;-83
2023/11/27 14:35:35;;;;;;;3.28;1.35;;;;;;;2.64;78.69;98618.41;10283164;28;20452;-85
2023/11/27 14:40:37;;;;;;;4.18;1.95;;;;;;;2.63;79.03;98598.19;10276834;28;20077;-84
2023/11/27 14:45:49;;;;;;;4.13;1.85;;;;;;;2.59;78.99;98587.09;10276641;28;20042;-83
2023/11/27 14:50:51;;;;;;;4.35;1.48;;;;;;;2.62;78.70;98577.94;10276635;28;20062;-82
2023/11/27 14:55:52;;;;;;;5.28;2.13;;;;;;;2.64;78.49;98576.78;10275788;28;20106;-80
2023/11/27 15:00:58;;;;;;;7.22;2.60;;;;;;;2.61;78.65;98566.53;10288050;28;20046;-88
2023/11/27 15:06:01;;;;;;;6.88;2.40;;;;;;;2.60;78.67;98551.59;10310740;28;20051;-83
2023/11/27 15:11:05;;;;;;;3.72;2.08;;;;;;;2.66;78.63;98534.19;10285133;28;20050;-83
2023/11/27 15:16:09;;;;;;;4.45;2.28;;;;;;;2.69;78.87;98533.84;10319577;28;20050;-83
2023/11/27 15:21:11;;;;;;;4.10;2.28;;;;;;;2.62;78.48;98531.03;10313352;28;20065;-83
2023/11/27 15:26:16;;;;;;;3.13;1.63;;;;;;;2.64;78.48;98512.28;10314774;28;20050;-79
2023/11/27 15:31:21;;;;;;;4.47;1.77;;;;;;;2.64;78.66;98502.50;10321659;28;20054;-82
2023/11/27 15:36:24;;;;;;;3.85;1.98;;;;;;;2.67;78.48;98501.34;10330813;28;20046;-82
2023/11/27 15:41:26;;;;;;;6.07;1.98;;;;;;;2.68;78.52;98497.69;10310455;28;20066;-82
2023/11/27 15:46:28;;;;;;;4.00;2.05;;;;;;;2.73;78.41;98498.84;10318796;28;20051;-82
2023/11/27 15:51:30;;;;;;;3.50;1.92;;;;;;;2.69;78.39;98483.44;10314804;28;20041;-83
2023/11/27 15:56:34;;;;;;;4.60;2.20;;;;;;;2.69;78.58;98473.66;10308723;28;20046;-83
2023/11/27 16:01:36;;;;;;;4.95;1.95;;;;;;;2.68;79.03;98457.91;10310649;23;20066;-60
2023/11/27 16:06:38;;;;;;;8.32;3.00;;;;;;;2.67;78.33;98453.63;10339120;28;20058;-61
2023/11/27 16:11:40;;;;;;;7.95;3.95;;;;;;;2.69;78.82;98441.81;10328388;28;20074;-59
2023/11/27 16:16:45;;;;;;;6.60;2.92;;;;;;;2.68;78.49;98434.03;10282738;28;20054;-58
2023/11/27 16:21:48;;;;;;;7.47;2.65;;;;;;;2.68;78.83;98418.13;10284703;28;20420;-58
2023/11/27 16:26:51;;;;;;;6.30;3.33;;;;;;;2.67;78.76;98411.19;10288009;28;20063;-58
2023/11/27 16:31:53;;;;;;;7.95;3.55;;;;;;;2.75;78.59;98400.50;10272703;28;20163;-58
2023/11/27 16:36:56;;;;;;;8.63;3.10;;;;;;;2.72;78.65;98387.59;10272337;28;20367;-58
2023/11/27 16:42:03;;;;;;;8.70;3.42;;;;;;;2.77;78.70;98379.94;10288608;28;20663;-58
2023/11/27 16:47:04;;;;;;;9.18;3.70;;;;;;;2.79;78.57;98377.94;10274030;28;20070;-58
2023/11/27 16:52:10;;;;;;;6.43;3.80;;;;;;;2.82;78.67;98374.91;10238217;29;20087;-58
2023/11/27 16:57:15;;;;;;;9.32;4.22;;;;;;;2.86;78.49;98362.94;10238989;29;20085;-58
2023/11/27 17:02:17;;;;;;;6.22;3.65;;;;;;;2.87;78.53;98356.66;10202121;29;20055;-59
2023/11/27 17:07:18;;;;;;;8.65;4.10;;;;;;;2.85;78.24;98352.53;10199246;29;20040;-59
2023/11/27 17:12:20;;;;;;;11.45;4.13;;;;;;;2.87;78.40;98338.09;10201599;29;20396;-59
2023/11/27 17:17:21;;;;;;;11.50;4.72;;;;;;;2.87;78.47;98330.13;10197211;29;20056;-58
2023/11/27 17:22:23;;;;;;;9.52;4.82;;;;;;;2.85;78.07;98320.69;10200060;29;20131;-59
2023/11/27 17:27:25;;;;;;;15.40;6.10;;;;;;;2.80;78.72;98323.03;10184742;29;20062;-58
2023/11/27 17:32:26;;;;;;;10.27;5.20;;;;;;;2.77;78.44;98316.28;10199683;29;20155;-59
2023/11/27 17:37:29;;;;;;;10.98;5.75;;;;;;;2.73;78.50;98299.06;10196885;29;20044;-59
2023/11/27 17:42:30;;;;;;;11.40;6.18;;;;;;;2.67;79.07;98289.16;10198881;29;20380;-59
2023/11/27 17:47:33;;;;;;;11.88;5.22;;;;;;;2.71;78.65;98288.63;10198330;29;20920;-58
2023/11/27 17:52:35;;;;;;;11.60;5.38;;;;;;;2.68;78.82;98278.34;10198843;29;20055;-58
2023/11/27 17:57:37;;;;;;;11.77;5.65;;;;;;;2.65;79.36;98273.41;10203423;29;20467;-58
2023/11/27 18:02:41;;;;;;;13.43;5.80;;;;;;;2.61;79.04;98264.16;10199131;29;20515;-58
2023/11/27 18:07:43;;;;;;;11.52;5.55;;;;;;;2.67;79.20;98262.63;10205391;29;20383;-58
2023/11/27 18:12:46;;;;;;;12.27;5.72;;;;;;;2.66;78.88;98264.44;10206304;29;20064;-59
2023/11/27 18:17:49;;;;;;;11.18;5.05;;;;;;;2.67;78.70;98249.38;10201431;29;20052;-58
2023/11/27 18:22:51;;;;;;;10.63;4.63;;;;;;;2.68;79.17;98237.75;10205024;29;20882;-58
2023/11/27 18:27:56;;;;;;;11.10;4.40;;;;;;;2.63;79.09;98230.34;10202784;29;20058;-58
2023/11/27 18:32:57;;;;;;;10.10;4.93;;;;;;;2.61;79.85;98221.72;10204048;29;20055;-58
2023/11/27 18:37:59;;;;;;;10.77;5.40;;;;;;;2.65;79.36;98222.22;10203653;29;20138;-59
2023/11/27 18:43:00;;;;;;;10.48;4.90;;;;;;;2.61;79.31;98205.81;10201879;29;20436;-58
2023/11/27 18:48:02;;;;;;;9.65;4.93;;;;;;;2.63;79.54;98200.34;10198896;29;20063;-58
2023/11/27 18:53:04;;;;;;;11.38;5.80;;;;;;;2.70;79.40;98195.94;10204184;29;20044;-58
2023/11/27 18:58:06;;;;;;;10.10;5.13;;;;;;;2.68;79.27;98192.66;10202877;29;20044;-58
2023/11/27 19:03:08;;;;;;;14.32;6.18;;;;;;;2.67;79.32;98186.53;10200225;29;20044;-59
2023/11/27 19:08:10;;;;;;;10.48;5.28;;;;;;;2.68;79.68;98190.81;10202390;29;20062;-59
2023/11/27 19:13:13;;;;;;;12.55;5.47;;;;;;;2.69;79.29;98183.72;10199995;29;20659;-59
2023/11/27 19:18:14;;;;;;;12.48;5.30;;;;;;;2.69;79.25;98170.44;10201888;29;20044;-58
2023/11/27 19:23:16;;;;;;;11.63;4.97;;;;;;;2.77;78.95;98167.72;10183160;29;20551;-59
2023/11/27 19:28:17;;;;;;;8.90;4.57;;;;;;;2.77;78.94;98157.09;10203418;29;20059;-58
2023/11/27 19:33:20;;;;;;;11.90;5.55;;;;;;;2.74;79.08;98152.97;10201366;29;20154;-59
2023/11/27 19:38:22;;;;;;;11.23;5.68;;;;;;;2.77;79.38;98146.50;10200038;29;20055;-58
2023/11/27 19:43:24;;;;;;;11.95;5.45;;;;;;;2.83;78.89;98137.81;10183001;29;20055;-58
2023/11/27 19:48:25;;;;;;;14.20;6.22;;;;;;;2.86;78.99;98134.78;10183916;29;20055;-59
2023/11/27 19:53:26;;;;;;;12.73;5.82;;;;;;;2.85;78.88;98129.66;10181060;29;20059;-59
2023/11/27 19:58:28;;;;;;;11.77;6.18;;;;;;;2.85;79.01;98130.47;10205174;29;20059;-59
2023/11/27 20:03:30;;;;;;;12.18;5.57;;;;;;;2.91;79.11;98124.44;10235155;29;20047;-59
2023/11/27 20:08:31;;;;;;;15.23;6.90;;;;;;;2.95;78.87;98116.97;10238722;29;20472;-59
2023/11/27 20:13:33;;;;;;;14.70;6.40;;;;;;;2.95;79.04;98114.31;10236727;29;20051;-58
2023/11/27 20:18:35;;;;;;;12.18;5.45;;;;;;;3.05;78.45;98114.03;10238058;28;20059;-58
2023/11/27 20:23:38;;;;;;;10.32;4.78;;;;;;;3.08;78.45;98108.34;10234553;29;20051;-59
2023/11/27 20:28:40;;;;;;;9.52;5.03;;;;;;;3.08;78.54;98095.06;10240451;29;20410;-59
2023/11/27 20:33:42;;;;;;;10.75;4.75;;;;;;;3.07;78.74;98085.47;10235600;29;20047;-59
2023/11/27 20:38:46;;;;;;;10.82;4.38;;;;;;;3.02;78.58;98086.03;10233131;29;20050;-58
2023/11/27 20:43:48;;;;;;;8.68;4.20;;;;;;;2.98;78.70;98090.88;10235429;29;20074;-59
2023/11/27 20:48:51;;;;;;;11.30;4.60;;;;;;;3.05;78.53;98074.22;10238317;28;20501;-57
2023/11/27 20:53:53;;;;;;;10.68;4.22;;;;;;;3.02;78.53;98071.91;10237345;29;20049;-58
2023/11/27 20:58:54;;;;;;;10.32;4.93;;;;;;;3.06;78.65;98075.84;10227907;29;20139;-58
2023/11/27 21:03:56;;;;;;;10.93;4.82;;;;;;;3.09;78.10;98070.19;10176763;29;20056;-57
2023/11/27 21:08:57;;;;;;;11.48;4.65;;;;;;;3.12;78.53;98072.44;10195772;29;20063;-57
2023/11/27 21:13:59;;;;;;;11.00;4.75;;;;;;;3.08;78.45;98069.38;10194925;29;20063;-58
2023/11/27 21:19:02;;;;;;;7.97;3.80;;;;;;;3.08;78.11;98060.56;10199798;29;20051;-58
2023/11/27 21:24:05;;;;;;;8.43;4.28;;;;;;;3.10;78.36;98053.25;10197951;29;20055;-59
2023/11/27 21:29:07;;;;;;;10.32;4.10;;;;;;;3.09;78.40;98048.94;10197416;29;20064;-59
2023/11/27 21:34:08;;;;;;;11.43;4.70;;;;;;;3.10;78.29;98054.09;10205053;29;20534;-59
2023/11/27 21:39:10;;;;;;;9.88;4.15;;;;;;;3.06;78.18;98036.03;10207178;29;20051;-58
2023/11/27 21:44:11;;;;;;;10.60;4.63;;;;;;;3.05;78.45;98037.88;10201351;29;20507;-58
2023/11/27 21:49:12;;;;;;;8.77;4.40;;;;;;;3.07;78.44;98035.88;10206219;29;20059;-59
2023/11/27 21:54:14;;;;;;;10.63;4.55;;;;;;;3.13;78.20;98036.97;10202497;29;20066;-59
2023/11/27 21:59:15;;;;;;;8.32;4.28;;;;;;;3.12;78.26;98030.84;10202562;29;20051;-59
2023/11/27 22:04:17;;;;;;;7.20;4.15;;;;;;;3.16;78.34;98029.44;10201911;29;21318;-59
2023/11/27 22:09:18;;;;;;;7.95;4.22;;;;;;;3.11;78.16;98025.69;10205854;29;20056;-59
2023/11/27 22:14:20;;;;;;;8.88;4.63;;;;;;;3.08;78.43;98016.28;10202067;29;20051;-59
2023/11/27 22:19:21;;;;;;;7.93;3.88;;;;;;;3.06;78.24;98023.63;10202230;29;20051;-58
2023/11/27 22:24:23;;;;;;;6.20;3.15;;;;;;;3.05;78.49;98013.19;10202603;29;20150;-59
2023/11/27 22:29:25;;;;;;;9.18;4.00;;;;;;;3.03;78.60;98012.53;10204099;29;20056;-60
2023/11/27 22:34:28;;;;;;;8.20;3.70;;;;;;;3.08;78.05;98008.34;10204549;29;20111;-59
2023/11/27 22:39:30;;;;;;;8.50;3.70;;;;;;;3.11;78.22;97999.97;10206320;29;20059;-59
2023/11/27 22:44:32;;;;;;;7.18;3.58;;;;;;;3.15;78.16;97995.13;10203040;29;20086;-59
2023/11/27 22:49:33;;;;;;;12.13;4.85;;;;;;;3.14;77.94;97986.34;10202532;29;20055;-59
2023/11/27 22:54:41;;;;;;;11.57;4.68;;;;;;;3.15;78.49;97981.84;10202037;29;20503;-60
2023/11/27 22:59:42;;;;;;;12.65;5.63;;;;;;;3.14;78.40;97985.50;10204105;29;20063;-59
2023/11/27 23:04:44;;;;;;;10.77;5.68;;;;;;;3.13;78.34;97978.56;10205546;29;20058;-59
2023/11/27 23:09:46;;;;;;;11.63;5.38;;;;;;;3.16;78.28;97967.59;10207555;29;20070;-59
2023/11/27 23:14:47;;;;;;;15.75;6.22;;;;;;;3.18;78.39;97963.72;10219377;28;20075;-59
2023/11/27 23:19:50;;;;;;;14.25;5.13;;;;;;;3.23;78.39;97960.50;10210144;29;20824;-60
2023/11/27 23:24:52;;;;;;;14.50;6.05;;;;;;;3.34;78.13;97961.84;10209800;29;20059;-59
2023/11/27 23:29:53;;;;;;;14.52;6.47;;;;;;;3.34;78.13;97965.31;10207029;29;20432;-59
2023/11/27 23:34:55;;;;;;;16.45;6.70;;;;;;;3.32;78.37;97964.69;10209850;29;20048;-59
2023/11/27 23:39:56;;;;;;;17.52;7.30;;;;;;;3.40;78.52;97958.44;10207576;29;20044;-60
2023/11/27 23:44:57;;;;;;;16.42;6.32;;;;;;;3.49;77.64;97945.84;10206935;29;20048;-60
2023/11/27 23:49:59;;;;;;;17.27;6.57;;;;;;;3.54;77.70;97946.09;10204995;29;20043;-59
2023/11/27 23:55:00;;;;;;;16.33;7.45;;;;;;;3.54;77.45;97944.25;10204954;28;20055;-60
